sensor_id;sensor_type;location;lat;lon;timestamp;temperature;humidity
4840;DHT22;2434;48.486;7.964;2023-04-01T00:01:06;9.80;72.10
4840;DHT22;2434;48.486;7.964;2023-04-01T00:03:34;9.90;71.90
4840;DHT22;2434;48.486;7.964;2023-04-01T00:06:04;9.90;71.70
4840;DHT22;2434;48.486;7.964;2023-04-01T00:08:33;9.90;71.20
4840;DHT22;2434;48.486;7.964;2023-04-01T00:11:02;9.90;71.10
4840;DHT22;2434;48.486;7.964;2023-04-01T00:13:30;9.90;70.30
4840;DHT22;2434;48.486;7.964;2023-04-01T00:15:59;9.80;70.50
4840;DHT22;2434;48.486;7.964;2023-04-01T00:18:30;9.80;70.60
4840;DHT22;2434;48.486;7.964;2023-04-01T00:20:58;9.80;69.40
4840;DHT22;2434;48.486;7.964;2023-04-01T00:23:26;9.80;69.80
4840;DHT22;2434;48.486;7.964;2023-04-01T00:25:56;9.90;68.80
4840;DHT22;2434;48.486;7.964;2023-04-01T00:28:27;9.80;68.50
4840;DHT22;2434;48.486;7.964;2023-04-01T00:30:55;9.90;67.60
4840;DHT22;2434;48.486;7.964;2023-04-01T00:33:23;9.90;67.00
4840;DHT22;2434;48.486;7.964;2023-04-01T00:35:52;9.90;67.40
4840;DHT22;2434;48.486;7.964;2023-04-01T00:38:20;9.90;66.50
4840;DHT22;2434;48.486;7.964;2023-04-01T00:40:48;9.90;66.80
4840;DHT22;2434;48.486;7.964;2023-04-01T00:43:20;9.90;66.60
4840;DHT22;2434;48.486;7.964;2023-04-01T00:45:49;9.90;65.60
4840;DHT22;2434;48.486;7.964;2023-04-01T00:48:18;9.80;66.10
4840;DHT22;2434;48.486;7.964;2023-04-01T00:50:50;9.80;66.00
4840;DHT22;2434;48.486;7.964;2023-04-01T00:53:20;9.80;65.30
4840;DHT22;2434;48.486;7.964;2023-04-01T00:55:53;9.70;65.30
4840;DHT22;2434;48.486;7.964;2023-04-01T00:58:26;9.70;64.90
4840;DHT22;2434;48.486;7.964;2023-04-01T01:00:56;9.60;64.90
4840;DHT22;2434;48.486;7.964;2023-04-01T01:03:26;9.60;66.00
4840;DHT22;2434;48.486;7.964;2023-04-01T01:09:02;9.50;65.40
4840;DHT22;2434;48.486;7.964;2023-04-01T01:11:38;9.50;65.70
4840;DHT22;2434;48.486;7.964;2023-04-01T01:14:19;9.50;65.50
4840;DHT22;2434;48.486;7.964;2023-04-01T01:16:54;9.50;65.40
4840;DHT22;2434;48.486;7.964;2023-04-01T01:19:45;9.50;66.20
4840;DHT22;2434;48.486;7.964;2023-04-01T01:22:40;9.40;66.10
4840;DHT22;2434;48.486;7.964;2023-04-01T01:25:21;9.30;66.70
4840;DHT22;2434;48.486;7.964;2023-04-01T01:27:57;9.30;67.30
4840;DHT22;2434;48.486;7.964;2023-04-01T01:30:42;9.30;67.60
4840;DHT22;2434;48.486;7.964;2023-04-01T01:33:35;9.30;69.10
4840;DHT22;2434;48.486;7.964;2023-04-01T01:36:12;9.30;68.60
4840;DHT22;2434;48.486;7.964;2023-04-01T01:38:42;9.30;69.10
4840;DHT22;2434;48.486;7.964;2023-04-01T01:41:12;9.30;69.60
4840;DHT22;2434;48.486;7.964;2023-04-01T01:43:43;9.20;70.00
4840;DHT22;2434;48.486;7.964;2023-04-01T01:46:18;9.20;70.30
4840;DHT22;2434;48.486;7.964;2023-04-01T01:48:48;9.20;70.60
4840;DHT22;2434;48.486;7.964;2023-04-01T01:51:20;9.20;70.50
4840;DHT22;2434;48.486;7.964;2023-04-01T01:53:49;9.20;70.50
4840;DHT22;2434;48.486;7.964;2023-04-01T01:56:22;9.20;71.20
4840;DHT22;2434;48.486;7.964;2023-04-01T01:58:53;9.20;69.60
4840;DHT22;2434;48.486;7.964;2023-04-01T02:01:24;9.20;69.70
4840;DHT22;2434;48.486;7.964;2023-04-01T02:03:57;9.30;69.10
4840;DHT22;2434;48.486;7.964;2023-04-01T02:06:31;9.20;68.90
4840;DHT22;2434;48.486;7.964;2023-04-01T02:09:02;9.20;68.80
4840;DHT22;2434;48.486;7.964;2023-04-01T02:11:34;9.20;69.60
4840;DHT22;2434;48.486;7.964;2023-04-01T02:14:06;9.20;68.80
4840;DHT22;2434;48.486;7.964;2023-04-01T02:16:38;9.10;69.10
4840;DHT22;2434;48.486;7.964;2023-04-01T02:19:09;9.20;69.20
4840;DHT22;2434;48.486;7.964;2023-04-01T02:21:40;9.20;69.10
4840;DHT22;2434;48.486;7.964;2023-04-01T02:24:12;9.20;68.70
4840;DHT22;2434;48.486;7.964;2023-04-01T02:26:42;9.20;67.10
4840;DHT22;2434;48.486;7.964;2023-04-01T02:29:12;9.20;67.00
4840;DHT22;2434;48.486;7.964;2023-04-01T02:31:41;9.20;66.70
4840;DHT22;2434;48.486;7.964;2023-04-01T02:34:10;9.30;66.00
4840;DHT22;2434;48.486;7.964;2023-04-01T02:36:40;9.30;65.80
4840;DHT22;2434;48.486;7.964;2023-04-01T02:39:09;9.30;66.00
4840;DHT22;2434;48.486;7.964;2023-04-01T02:41:40;9.30;65.70
4840;DHT22;2434;48.486;7.964;2023-04-01T02:44:09;9.30;65.50
4840;DHT22;2434;48.486;7.964;2023-04-01T02:46:38;9.30;64.90
4840;DHT22;2434;48.486;7.964;2023-04-01T02:49:07;9.30;65.00
4840;DHT22;2434;48.486;7.964;2023-04-01T02:51:35;9.30;65.30
4840;DHT22;2434;48.486;7.964;2023-04-01T02:54:04;9.40;66.90
4840;DHT22;2434;48.486;7.964;2023-04-01T02:56:33;9.40;67.10
4840;DHT22;2434;48.486;7.964;2023-04-01T02:59:01;9.40;68.20
4840;DHT22;2434;48.486;7.964;2023-04-01T03:01:30;9.50;67.40
4840;DHT22;2434;48.486;7.964;2023-04-01T03:03:58;9.50;66.90
4840;DHT22;2434;48.486;7.964;2023-04-01T03:06:26;9.60;66.40
4840;DHT22;2434;48.486;7.964;2023-04-01T03:08:55;9.60;65.90
4840;DHT22;2434;48.486;7.964;2023-04-01T03:11:25;9.60;66.10
4840;DHT22;2434;48.486;7.964;2023-04-01T03:13:53;9.60;65.70
4840;DHT22;2434;48.486;7.964;2023-04-01T03:16:21;9.70;65.90
4840;DHT22;2434;48.486;7.964;2023-04-01T03:18:50;9.70;65.70
4840;DHT22;2434;48.486;7.964;2023-04-01T03:21:21;9.70;65.70
4840;DHT22;2434;48.486;7.964;2023-04-01T03:23:50;9.70;66.70
4840;DHT22;2434;48.486;7.964;2023-04-01T03:26:18;9.70;65.90
4840;DHT22;2434;48.486;7.964;2023-04-01T03:28:48;9.70;66.30
4840;DHT22;2434;48.486;7.964;2023-04-01T03:31:16;9.70;65.90
4840;DHT22;2434;48.486;7.964;2023-04-01T03:33:51;9.70;65.60
4840;DHT22;2434;48.486;7.964;2023-04-01T03:36:19;9.70;65.40
4840;DHT22;2434;48.486;7.964;2023-04-01T03:38:47;9.70;65.80
4840;DHT22;2434;48.486;7.964;2023-04-01T03:41:22;9.70;65.60
4840;DHT22;2434;48.486;7.964;2023-04-01T03:43:53;9.70;65.20
4840;DHT22;2434;48.486;7.964;2023-04-01T03:46:21;9.80;65.10
4840;DHT22;2434;48.486;7.964;2023-04-01T03:48:49;9.80;65.00
4840;DHT22;2434;48.486;7.964;2023-04-01T03:51:18;9.80;64.70
4840;DHT22;2434;48.486;7.964;2023-04-01T03:53:47;9.80;65.40
4840;DHT22;2434;48.486;7.964;2023-04-01T03:56:16;9.70;64.50
4840;DHT22;2434;48.486;7.964;2023-04-01T03:58:44;9.70;63.80
4840;DHT22;2434;48.486;7.964;2023-04-01T04:01:16;9.70;63.30
4840;DHT22;2434;48.486;7.964;2023-04-01T04:03:46;9.70;62.20
4840;DHT22;2434;48.486;7.964;2023-04-01T04:06:17;9.70;62.10
4840;DHT22;2434;48.486;7.964;2023-04-01T04:08:46;9.70;61.00
4840;DHT22;2434;48.486;7.964;2023-04-01T04:11:15;9.70;61.00
4840;DHT22;2434;48.486;7.964;2023-04-01T04:13:44;9.70;61.00
4840;DHT22;2434;48.486;7.964;2023-04-01T04:16:12;9.70;60.30
4840;DHT22;2434;48.486;7.964;2023-04-01T04:18:46;9.60;60.00
4840;DHT22;2434;48.486;7.964;2023-04-01T04:21:15;9.70;59.80
4840;DHT22;2434;48.486;7.964;2023-04-01T04:23:43;9.60;59.50
4840;DHT22;2434;48.486;7.964;2023-04-01T04:26:15;9.60;59.50
4840;DHT22;2434;48.486;7.964;2023-04-01T04:28:49;9.60;59.40
4840;DHT22;2434;48.486;7.964;2023-04-01T04:31:20;9.60;59.30
4840;DHT22;2434;48.486;7.964;2023-04-01T04:33:51;9.60;59.60
4840;DHT22;2434;48.486;7.964;2023-04-01T04:36:20;9.60;60.60
4840;DHT22;2434;48.486;7.964;2023-04-01T04:38:51;9.60;60.00
4840;DHT22;2434;48.486;7.964;2023-04-01T04:41:19;9.60;60.40
4840;DHT22;2434;48.486;7.964;2023-04-01T04:43:51;9.60;60.40
4840;DHT22;2434;48.486;7.964;2023-04-01T04:46:20;9.60;60.70
4840;DHT22;2434;48.486;7.964;2023-04-01T04:48:56;9.60;60.10
4840;DHT22;2434;48.486;7.964;2023-04-01T04:51:25;9.60;60.70
4840;DHT22;2434;48.486;7.964;2023-04-01T04:53:53;9.70;60.50
4840;DHT22;2434;48.486;7.964;2023-04-01T04:56:32;9.70;59.90
4840;DHT22;2434;48.486;7.964;2023-04-01T04:59:05;9.60;60.00
4840;DHT22;2434;48.486;7.964;2023-04-01T05:01:46;9.60;60.20
4840;DHT22;2434;48.486;7.964;2023-04-01T05:04:16;9.60;61.60
4840;DHT22;2434;48.486;7.964;2023-04-01T05:06:44;9.50;60.60
4840;DHT22;2434;48.486;7.964;2023-04-01T05:09:13;9.50;61.10
4840;DHT22;2434;48.486;7.964;2023-04-01T05:11:42;9.50;61.00
4840;DHT22;2434;48.486;7.964;2023-04-01T05:14:13;9.50;61.60
4840;DHT22;2434;48.486;7.964;2023-04-01T05:16:44;9.50;62.00
4840;DHT22;2434;48.486;7.964;2023-04-01T05:19:12;9.50;62.00
4840;DHT22;2434;48.486;7.964;2023-04-01T05:21:41;9.50;62.50
4840;DHT22;2434;48.486;7.964;2023-04-01T05:24:10;9.40;62.80
4840;DHT22;2434;48.486;7.964;2023-04-01T05:26:39;9.40;63.00
4840;DHT22;2434;48.486;7.964;2023-04-01T05:29:07;9.50;63.30
4840;DHT22;2434;48.486;7.964;2023-04-01T05:31:35;9.50;64.20
4840;DHT22;2434;48.486;7.964;2023-04-01T05:34:04;9.50;64.70
4840;DHT22;2434;48.486;7.964;2023-04-01T05:36:33;9.50;63.80
4840;DHT22;2434;48.486;7.964;2023-04-01T05:39:04;9.40;65.00
4840;DHT22;2434;48.486;7.964;2023-04-01T05:41:34;9.40;64.50
4840;DHT22;2434;48.486;7.964;2023-04-01T05:44:03;9.40;65.40
4840;DHT22;2434;48.486;7.964;2023-04-01T05:46:51;9.40;64.80
4840;DHT22;2434;48.486;7.964;2023-04-01T05:49:22;9.40;65.60
4840;DHT22;2434;48.486;7.964;2023-04-01T05:51:53;9.40;64.40
4840;DHT22;2434;48.486;7.964;2023-04-01T05:54:23;9.40;64.70
4840;DHT22;2434;48.486;7.964;2023-04-01T05:56:51;9.40;65.30
4840;DHT22;2434;48.486;7.964;2023-04-01T05:59:20;9.40;65.20
4840;DHT22;2434;48.486;7.964;2023-04-01T06:01:48;9.40;65.00
4840;DHT22;2434;48.486;7.964;2023-04-01T06:04:17;9.40;65.60
4840;DHT22;2434;48.486;7.964;2023-04-01T06:06:46;9.50;64.70
4840;DHT22;2434;48.486;7.964;2023-04-01T06:09:16;9.50;63.90
4840;DHT22;2434;48.486;7.964;2023-04-01T06:12:02;9.50;63.90
4840;DHT22;2434;48.486;7.964;2023-04-01T06:15:06;9.60;63.60
4840;DHT22;2434;48.486;7.964;2023-04-01T06:17:49;9.50;63.30
4840;DHT22;2434;48.486;7.964;2023-04-01T06:20:34;9.60;63.20
4840;DHT22;2434;48.486;7.964;2023-04-01T06:23:17;9.70;61.80
4840;DHT22;2434;48.486;7.964;2023-04-01T06:25:54;9.70;62.10
4840;DHT22;2434;48.486;7.964;2023-04-01T06:31:43;9.70;62.30
4840;DHT22;2434;48.486;7.964;2023-04-01T06:34:27;9.70;63.50
4840;DHT22;2434;48.486;7.964;2023-04-01T06:37:08;9.70;63.50
4840;DHT22;2434;48.486;7.964;2023-04-01T06:40:12;9.70;63.70
4840;DHT22;2434;48.486;7.964;2023-04-01T06:42:58;9.80;63.50
4840;DHT22;2434;48.486;7.964;2023-04-01T06:45:54;9.70;63.70
4840;DHT22;2434;48.486;7.964;2023-04-01T06:49:05;9.70;64.80
4840;DHT22;2434;48.486;7.964;2023-04-01T06:51:50;9.70;66.10
4840;DHT22;2434;48.486;7.964;2023-04-01T06:54:49;9.70;67.40
4840;DHT22;2434;48.486;7.964;2023-04-01T06:57:56;9.60;70.10
4840;DHT22;2434;48.486;7.964;2023-04-01T07:00:30;9.60;70.40
4840;DHT22;2434;48.486;7.964;2023-04-01T07:03:07;9.60;71.10
4840;DHT22;2434;48.486;7.964;2023-04-01T07:05:41;9.60;70.40
4840;DHT22;2434;48.486;7.964;2023-04-01T07:08:15;9.60;70.80
4840;DHT22;2434;48.486;7.964;2023-04-01T07:10:48;9.60;70.80
4840;DHT22;2434;48.486;7.964;2023-04-01T07:13:46;9.60;71.00
4840;DHT22;2434;48.486;7.964;2023-04-01T07:16:20;9.60;71.50
4840;DHT22;2434;48.486;7.964;2023-04-01T07:18:58;9.60;70.70
4840;DHT22;2434;48.486;7.964;2023-04-01T07:21:45;9.60;71.50
4840;DHT22;2434;48.486;7.964;2023-04-01T07:24:26;9.60;71.60
4840;DHT22;2434;48.486;7.964;2023-04-01T07:27:08;9.60;71.60
4840;DHT22;2434;48.486;7.964;2023-04-01T07:29:39;9.60;71.10
4840;DHT22;2434;48.486;7.964;2023-04-01T07:32:17;9.50;71.80
4840;DHT22;2434;48.486;7.964;2023-04-01T07:35:05;9.60;71.80
4840;DHT22;2434;48.486;7.964;2023-04-01T07:37:40;9.60;72.80
4840;DHT22;2434;48.486;7.964;2023-04-01T07:40:20;9.60;71.60
4840;DHT22;2434;48.486;7.964;2023-04-01T07:43:02;9.60;72.10
4840;DHT22;2434;48.486;7.964;2023-04-01T07:45:51;9.60;72.10
4840;DHT22;2434;48.486;7.964;2023-04-01T07:48:32;9.70;72.30
4840;DHT22;2434;48.486;7.964;2023-04-01T07:51:09;9.70;73.30
4840;DHT22;2434;48.486;7.964;2023-04-01T07:53:45;9.70;72.70
4840;DHT22;2434;48.486;7.964;2023-04-01T07:56:18;9.70;73.00
4840;DHT22;2434;48.486;7.964;2023-04-01T07:59:00;9.60;73.90
4840;DHT22;2434;48.486;7.964;2023-04-01T08:02:00;9.50;75.80
4840;DHT22;2434;48.486;7.964;2023-04-01T08:04:42;9.50;76.50
4840;DHT22;2434;48.486;7.964;2023-04-01T08:07:17;9.50;77.30
4840;DHT22;2434;48.486;7.964;2023-04-01T08:10:09;9.40;79.10
4840;DHT22;2434;48.486;7.964;2023-04-01T08:13:08;9.40;79.60
4840;DHT22;2434;48.486;7.964;2023-04-01T08:16:09;9.30;81.40
4840;DHT22;2434;48.486;7.964;2023-04-01T08:18:57;9.30;82.50
4840;DHT22;2434;48.486;7.964;2023-04-01T08:21:31;9.30;84.20
4840;DHT22;2434;48.486;7.964;2023-04-01T08:24:11;9.30;84.90
4840;DHT22;2434;48.486;7.964;2023-04-01T08:26:50;9.20;85.30
4840;DHT22;2434;48.486;7.964;2023-04-01T08:29:23;9.20;86.20
4840;DHT22;2434;48.486;7.964;2023-04-01T08:31:56;9.20;87.10
4840;DHT22;2434;48.486;7.964;2023-04-01T08:34:30;9.10;88.40
4840;DHT22;2434;48.486;7.964;2023-04-01T08:37:05;9.10;88.10
4840;DHT22;2434;48.486;7.964;2023-04-01T08:39:38;9.10;89.30
4840;DHT22;2434;48.486;7.964;2023-04-01T08:42:39;9.10;89.60
4840;DHT22;2434;48.486;7.964;2023-04-01T08:45:34;9.10;90.30
4840;DHT22;2434;48.486;7.964;2023-04-01T08:48:28;9.10;90.40
4840;DHT22;2434;48.486;7.964;2023-04-01T08:51:11;9.10;91.00
4840;DHT22;2434;48.486;7.964;2023-04-01T08:54:09;9.00;91.50
4840;DHT22;2434;48.486;7.964;2023-04-01T08:56:50;9.20;92.00
4840;DHT22;2434;48.486;7.964;2023-04-01T08:59:57;9.20;91.10
4840;DHT22;2434;48.486;7.964;2023-04-01T09:06:24;9.30;90.50
4840;DHT22;2434;48.486;7.964;2023-04-01T09:12:34;9.40;91.50
4840;DHT22;2434;48.486;7.964;2023-04-01T09:15:42;9.40;90.80
4840;DHT22;2434;48.486;7.964;2023-04-01T09:18:36;9.40;90.80
4840;DHT22;2434;48.486;7.964;2023-04-01T09:21:23;9.40;90.60
4840;DHT22;2434;48.486;7.964;2023-04-01T09:24:25;9.40;90.90
4840;DHT22;2434;48.486;7.964;2023-04-01T09:27:04;9.40;90.50
4840;DHT22;2434;48.486;7.964;2023-04-01T09:32:52;9.30;91.90
4840;DHT22;2434;48.486;7.964;2023-04-01T09:35:36;9.40;91.50
4840;DHT22;2434;48.486;7.964;2023-04-01T09:38:22;9.40;93.50
4840;DHT22;2434;48.486;7.964;2023-04-01T09:40:56;9.40;92.90
4840;DHT22;2434;48.486;7.964;2023-04-01T09:43:47;9.40;93.30
4840;DHT22;2434;48.486;7.964;2023-04-01T09:46:26;9.40;93.30
4840;DHT22;2434;48.486;7.964;2023-04-01T09:49:34;9.50;93.40
4840;DHT22;2434;48.486;7.964;2023-04-01T09:52:14;9.50;93.40
4840;DHT22;2434;48.486;7.964;2023-04-01T09:54:57;9.40;93.40
4840;DHT22;2434;48.486;7.964;2023-04-01T09:58:00;9.50;93.80
4840;DHT22;2434;48.486;7.964;2023-04-01T10:04:17;9.50;93.50
4840;DHT22;2434;48.486;7.964;2023-04-01T10:20:03;9.50;93.50
4840;DHT22;2434;48.486;7.964;2023-04-01T10:22:54;9.40;92.90
4840;DHT22;2434;48.486;7.964;2023-04-01T10:29:00;9.50;92.50
4840;DHT22;2434;48.486;7.964;2023-04-01T10:32:12;9.50;92.30
4840;DHT22;2434;48.486;7.964;2023-04-01T10:35:22;9.60;92.80
4840;DHT22;2434;48.486;7.964;2023-04-01T10:38:29;9.50;93.00
4840;DHT22;2434;48.486;7.964;2023-04-01T10:51:01;9.60;93.40
4840;DHT22;2434;48.486;7.964;2023-04-01T10:57:18;9.70;94.40
4840;DHT22;2434;48.486;7.964;2023-04-01T11:07:43;9.60;91.40
4840;DHT22;2434;48.486;7.964;2023-04-01T11:11:05;9.60;91.60
4840;DHT22;2434;48.486;7.964;2023-04-01T11:20:42;9.70;93.10
4840;DHT22;2434;48.486;7.964;2023-04-01T11:23:22;9.70;93.10
4840;DHT22;2434;48.486;7.964;2023-04-01T11:26:02;9.70;93.40
4840;DHT22;2434;48.486;7.964;2023-04-01T11:29:36;9.70;93.80
4840;DHT22;2434;48.486;7.964;2023-04-01T11:32:53;9.90;93.80
4840;DHT22;2434;48.486;7.964;2023-04-01T11:35:33;9.90;93.90
4840;DHT22;2434;48.486;7.964;2023-04-01T11:38:15;9.90;94.30
4840;DHT22;2434;48.486;7.964;2023-04-01T11:40:51;9.90;94.50
4840;DHT22;2434;48.486;7.964;2023-04-01T11:44:02;9.80;94.10
4840;DHT22;2434;48.486;7.964;2023-04-01T11:47:02;9.70;93.80
4840;DHT22;2434;48.486;7.964;2023-04-01T11:49:43;9.80;94.30
4840;DHT22;2434;48.486;7.964;2023-04-01T11:52:32;9.80;94.10
4840;DHT22;2434;48.486;7.964;2023-04-01T11:55:15;9.80;94.40
4840;DHT22;2434;48.486;7.964;2023-04-01T11:57:56;9.80;95.40
4840;DHT22;2434;48.486;7.964;2023-04-01T12:06:42;9.90;96.70
4840;DHT22;2434;48.486;7.964;2023-04-01T12:09:21;9.90;96.60
4840;DHT22;2434;48.486;7.964;2023-04-01T12:12:01;9.90;96.90
4840;DHT22;2434;48.486;7.964;2023-04-01T12:14:39;10.00;96.20
4840;DHT22;2434;48.486;7.964;2023-04-01T12:17:20;9.90;95.50
4840;DHT22;2434;48.486;7.964;2023-04-01T12:19:58;10.00;95.00
4840;DHT22;2434;48.486;7.964;2023-04-01T12:22:41;10.00;94.50
4840;DHT22;2434;48.486;7.964;2023-04-01T12:25:29;10.00;94.10
4840;DHT22;2434;48.486;7.964;2023-04-01T12:28:10;10.00;94.00
4840;DHT22;2434;48.486;7.964;2023-04-01T12:30:50;10.00;93.70
4840;DHT22;2434;48.486;7.964;2023-04-01T12:33:39;10.00;94.20
4840;DHT22;2434;48.486;7.964;2023-04-01T12:36:40;10.00;94.30
4840;DHT22;2434;48.486;7.964;2023-04-01T12:39:28;10.00;94.50
4840;DHT22;2434;48.486;7.964;2023-04-01T12:42:08;10.00;94.40
4840;DHT22;2434;48.486;7.964;2023-04-01T12:44:49;10.00;93.90
4840;DHT22;2434;48.486;7.964;2023-04-01T12:47:58;10.10;93.80
4840;DHT22;2434;48.486;7.964;2023-04-01T12:50:54;10.10;93.20
4840;DHT22;2434;48.486;7.964;2023-04-01T12:53:36;10.00;91.40
4840;DHT22;2434;48.486;7.964;2023-04-01T12:56:12;10.00;91.20
4840;DHT22;2434;48.486;7.964;2023-04-01T12:59:01;10.00;91.20
4840;DHT22;2434;48.486;7.964;2023-04-01T13:01:59;10.00;91.90
4840;DHT22;2434;48.486;7.964;2023-04-01T13:04:51;10.10;90.20
4840;DHT22;2434;48.486;7.964;2023-04-01T13:07:33;10.00;90.10
4840;DHT22;2434;48.486;7.964;2023-04-01T13:10:10;10.00;89.80
4840;DHT22;2434;48.486;7.964;2023-04-01T13:13:13;10.00;90.20
4840;DHT22;2434;48.486;7.964;2023-04-01T13:15:45;9.90;89.70
4840;DHT22;2434;48.486;7.964;2023-04-01T13:18:25;10.00;90.30
4840;DHT22;2434;48.486;7.964;2023-04-01T13:21:04;10.00;89.80
4840;DHT22;2434;48.486;7.964;2023-04-01T13:23:42;10.00;90.40
4840;DHT22;2434;48.486;7.964;2023-04-01T13:26:20;10.10;90.70
4840;DHT22;2434;48.486;7.964;2023-04-01T13:28:53;10.00;90.50
4840;DHT22;2434;48.486;7.964;2023-04-01T13:31:33;10.00;91.20
4840;DHT22;2434;48.486;7.964;2023-04-01T13:34:13;10.10;91.20
4840;DHT22;2434;48.486;7.964;2023-04-01T13:36:56;10.30;91.00
4840;DHT22;2434;48.486;7.964;2023-04-01T13:39:35;10.20;91.20
4840;DHT22;2434;48.486;7.964;2023-04-01T13:42:16;10.10;91.90
4840;DHT22;2434;48.486;7.964;2023-04-01T13:44:49;10.10;89.70
4840;DHT22;2434;48.486;7.964;2023-04-01T13:47:47;10.10;89.80
4840;DHT22;2434;48.486;7.964;2023-04-01T13:50:34;10.20;89.80
4840;DHT22;2434;48.486;7.964;2023-04-01T13:53:21;10.10;88.70
4840;DHT22;2434;48.486;7.964;2023-04-01T13:58:56;10.20;86.80
4840;DHT22;2434;48.486;7.964;2023-04-01T14:01:35;10.20;86.90
4840;DHT22;2434;48.486;7.964;2023-04-01T14:04:28;10.30;87.20
4840;DHT22;2434;48.486;7.964;2023-04-01T14:07:08;10.40;85.30
4840;DHT22;2434;48.486;7.964;2023-04-01T14:09:59;10.40;84.20
4840;DHT22;2434;48.486;7.964;2023-04-01T14:12:31;10.40;84.00
4840;DHT22;2434;48.486;7.964;2023-04-01T14:15:22;10.40;82.90
4840;DHT22;2434;48.486;7.964;2023-04-01T14:18:04;10.40;82.90
4840;DHT22;2434;48.486;7.964;2023-04-01T14:20:40;10.40;84.60
4840;DHT22;2434;48.486;7.964;2023-04-01T14:23:36;10.50;84.40
4840;DHT22;2434;48.486;7.964;2023-04-01T14:29:22;10.50;84.80
4840;DHT22;2434;48.486;7.964;2023-04-01T14:31:59;10.50;84.30
4840;DHT22;2434;48.486;7.964;2023-04-01T14:34:45;10.50;84.90
4840;DHT22;2434;48.486;7.964;2023-04-01T14:37:25;10.50;84.80
4840;DHT22;2434;48.486;7.964;2023-04-01T14:40:20;10.50;84.70
4840;DHT22;2434;48.486;7.964;2023-04-01T14:43:16;10.60;84.60
4840;DHT22;2434;48.486;7.964;2023-04-01T14:48:36;10.60;82.40
4840;DHT22;2434;48.486;7.964;2023-04-01T14:51:13;10.60;82.10
4840;DHT22;2434;48.486;7.964;2023-04-01T14:53:50;10.60;82.30
4840;DHT22;2434;48.486;7.964;2023-04-01T14:56:36;10.70;82.60
4840;DHT22;2434;48.486;7.964;2023-04-01T14:59:10;10.80;81.50
4840;DHT22;2434;48.486;7.964;2023-04-01T15:01:46;10.70;81.60
4840;DHT22;2434;48.486;7.964;2023-04-01T15:04:47;10.80;81.60
4840;DHT22;2434;48.486;7.964;2023-04-01T15:07:41;10.80;82.10
4840;DHT22;2434;48.486;7.964;2023-04-01T15:10:24;10.80;81.00
4840;DHT22;2434;48.486;7.964;2023-04-01T15:13:08;10.90;82.50
4840;DHT22;2434;48.486;7.964;2023-04-01T15:15:51;10.90;82.30
4840;DHT22;2434;48.486;7.964;2023-04-01T15:18:31;11.00;82.20
4840;DHT22;2434;48.486;7.964;2023-04-01T15:21:13;11.00;82.10
4840;DHT22;2434;48.486;7.964;2023-04-01T15:23:58;11.00;81.20
4840;DHT22;2434;48.486;7.964;2023-04-01T15:26:47;11.00;81.20
4840;DHT22;2434;48.486;7.964;2023-04-01T15:29:33;11.00;79.80
4840;DHT22;2434;48.486;7.964;2023-04-01T15:32:16;11.00;80.10
4840;DHT22;2434;48.486;7.964;2023-04-01T15:34:51;11.00;79.50
4840;DHT22;2434;48.486;7.964;2023-04-01T15:37:29;11.00;79.00
4840;DHT22;2434;48.486;7.964;2023-04-01T15:40:05;11.00;79.60
4840;DHT22;2434;48.486;7.964;2023-04-01T15:42:48;11.00;79.90
4840;DHT22;2434;48.486;7.964;2023-04-01T15:45:31;11.00;79.30
4840;DHT22;2434;48.486;7.964;2023-04-01T15:48:12;11.00;79.40
4840;DHT22;2434;48.486;7.964;2023-04-01T15:50:54;11.00;77.40
4840;DHT22;2434;48.486;7.964;2023-04-01T15:53:40;11.00;76.90
4840;DHT22;2434;48.486;7.964;2023-04-01T15:56:43;11.10;77.30
4840;DHT22;2434;48.486;7.964;2023-04-01T15:59:20;11.20;78.50
4840;DHT22;2434;48.486;7.964;2023-04-01T16:01:58;11.20;77.80
4840;DHT22;2434;48.486;7.964;2023-04-01T16:04:43;11.20;77.30
4840;DHT22;2434;48.486;7.964;2023-04-01T16:07:24;11.20;77.40
4840;DHT22;2434;48.486;7.964;2023-04-01T16:10:07;11.20;76.90
4840;DHT22;2434;48.486;7.964;2023-04-01T16:12:49;11.20;77.00
4840;DHT22;2434;48.486;7.964;2023-04-01T16:15:26;11.30;76.80
4840;DHT22;2434;48.486;7.964;2023-04-01T16:18:10;11.20;74.90
4840;DHT22;2434;48.486;7.964;2023-04-01T16:20:49;11.10;75.60
4840;DHT22;2434;48.486;7.964;2023-04-01T16:23:24;11.10;74.80
4840;DHT22;2434;48.486;7.964;2023-04-01T16:26:01;11.10;73.10
4840;DHT22;2434;48.486;7.964;2023-04-01T16:28:34;11.00;70.90
4840;DHT22;2434;48.486;7.964;2023-04-01T16:31:07;11.00;70.00
4840;DHT22;2434;48.486;7.964;2023-04-01T16:33:46;11.10;69.10
4840;DHT22;2434;48.486;7.964;2023-04-01T16:36:26;11.10;69.00
4840;DHT22;2434;48.486;7.964;2023-04-01T16:39:08;11.10;68.40
4840;DHT22;2434;48.486;7.964;2023-04-01T16:41:46;11.10;68.40
4840;DHT22;2434;48.486;7.964;2023-04-01T16:44:19;11.20;69.80
4840;DHT22;2434;48.486;7.964;2023-04-01T16:46:50;11.20;71.70
4840;DHT22;2434;48.486;7.964;2023-04-01T16:49:32;11.20;73.90
4840;DHT22;2434;48.486;7.964;2023-04-01T16:52:15;11.10;75.70
4840;DHT22;2434;48.486;7.964;2023-04-01T16:54:50;11.10;75.50
4840;DHT22;2434;48.486;7.964;2023-04-01T16:57:23;11.10;76.20
4840;DHT22;2434;48.486;7.964;2023-04-01T16:59:56;11.10;74.50
4840;DHT22;2434;48.486;7.964;2023-04-01T17:02:31;11.00;73.40
4840;DHT22;2434;48.486;7.964;2023-04-01T17:05:04;11.00;73.50
4840;DHT22;2434;48.486;7.964;2023-04-01T17:07:44;11.00;73.00
4840;DHT22;2434;48.486;7.964;2023-04-01T17:10:37;11.00;74.40
4840;DHT22;2434;48.486;7.964;2023-04-01T17:16:13;11.00;73.20
4840;DHT22;2434;48.486;7.964;2023-04-01T17:18:49;10.90;73.70
4840;DHT22;2434;48.486;7.964;2023-04-01T17:21:25;11.00;73.20
4840;DHT22;2434;48.486;7.964;2023-04-01T17:24:07;10.90;72.60
4840;DHT22;2434;48.486;7.964;2023-04-01T17:26:44;10.90;72.60
4840;DHT22;2434;48.486;7.964;2023-04-01T17:29:20;10.90;73.30
4840;DHT22;2434;48.486;7.964;2023-04-01T17:32:01;10.90;73.10
4840;DHT22;2434;48.486;7.964;2023-04-01T17:34:46;10.80;74.80
4840;DHT22;2434;48.486;7.964;2023-04-01T17:37:33;10.70;76.20
4840;DHT22;2434;48.486;7.964;2023-04-01T17:40:20;10.50;81.70
4840;DHT22;2434;48.486;7.964;2023-04-01T17:42:59;10.30;84.30
4840;DHT22;2434;48.486;7.964;2023-04-01T17:45:33;10.40;84.10
4840;DHT22;2434;48.486;7.964;2023-04-01T17:48:16;10.50;84.60
4840;DHT22;2434;48.486;7.964;2023-04-01T17:50:56;10.80;83.10
4840;DHT22;2434;48.486;7.964;2023-04-01T17:53:35;10.80;82.00
4840;DHT22;2434;48.486;7.964;2023-04-01T17:56:11;10.90;81.00
4840;DHT22;2434;48.486;7.964;2023-04-01T17:58:45;10.90;80.30
4840;DHT22;2434;48.486;7.964;2023-04-01T18:01:35;10.80;79.60
4840;DHT22;2434;48.486;7.964;2023-04-01T18:04:21;10.80;79.40
4840;DHT22;2434;48.486;7.964;2023-04-01T18:07:04;10.70;78.90
4840;DHT22;2434;48.486;7.964;2023-04-01T18:09:42;10.70;79.00
4840;DHT22;2434;48.486;7.964;2023-04-01T18:12:21;10.60;79.80
4840;DHT22;2434;48.486;7.964;2023-04-01T18:15:06;10.50;78.80
4840;DHT22;2434;48.486;7.964;2023-04-01T18:17:45;10.60;79.10
4840;DHT22;2434;48.486;7.964;2023-04-01T18:20:33;10.70;78.80
4840;DHT22;2434;48.486;7.964;2023-04-01T18:23:06;10.70;78.70
4840;DHT22;2434;48.486;7.964;2023-04-01T18:25:41;10.70;78.10
4840;DHT22;2434;48.486;7.964;2023-04-01T18:28:23;10.60;78.30
4840;DHT22;2434;48.486;7.964;2023-04-01T18:30:57;10.60;78.90
4840;DHT22;2434;48.486;7.964;2023-04-01T18:33:34;10.60;78.50
4840;DHT22;2434;48.486;7.964;2023-04-01T18:36:13;10.60;77.50
4840;DHT22;2434;48.486;7.964;2023-04-01T18:38:49;10.60;77.90
4840;DHT22;2434;48.486;7.964;2023-04-01T18:41:22;10.70;77.10
4840;DHT22;2434;48.486;7.964;2023-04-01T18:44:03;10.70;76.70
4840;DHT22;2434;48.486;7.964;2023-04-01T18:46:39;10.60;77.60
4840;DHT22;2434;48.486;7.964;2023-04-01T18:49:16;10.70;77.30
4840;DHT22;2434;48.486;7.964;2023-04-01T18:51:50;10.60;78.10